Bowyer, South Carolina
Current Conditions -  °F | °C
As of 1:15 PM on Thursday 23 Oct 2014 (Local Time) from KDYB Reporting Station
Clear Clear  
Wind Chill: 64°   Ceiling: Unl
Heat Index: 64°   Visibility: 10mi
Dew Point: 45°   Wind: 8mph
Humidity: 49%   Direction: 320°NW
Pressure: 30.06"   Gusts: NA
Location:  33.3181°N, 80.3899°W
Report Text: KDYB 231715Z AUTO 32007KT 10SM CLR 18/07 A3006 RMK AO1
Loading
Personal Weather Stations






























Interactive Weather Map
Tropical Storm Tracking
New forecast layout! Learn more

10-Day Weather Forecast

Advertisements
Track Severe Weather on mobile